Time;durP1;ratioP1;P1;durP2;ratioP2;P2;SDS_P1;SDS_P2;PMS_P1;PMS_P2;Temp;Humidity;BMP_temperature;BMP_pressure;BME280_temperature;BME280_humidity;BME280_pressure;Samples;Min_cycle;Max_cycle;Signal;HPM_P1;HPM_P2
2021/07/02 00:00:43;;;;;;;3.88;2.72;;;15.20;99.90;;;;;;4974511;28;20101;-72
2021/07/02 00:03:10;;;;;;;4.10;2.30;;;15.20;99.90;;;;;;4972053;28;20047;-72
2021/07/02 00:05:37;;;;;;;3.83;2.28;;;15.30;99.90;;;;;;4974261;28;20051;-71
2021/07/02 00:08:04;;;;;;;2.88;2.53;;;15.20;99.90;;;;;;4959221;28;20071;-72
2021/07/02 00:10:32;;;;;;;2.80;2.58;;;15.30;99.90;;;;;;4955836;28;20411;-73
2021/07/02 00:12:58;;;;;;;5.10;2.83;;;15.30;99.90;;;;;;4962307;28;20089;-73
2021/07/02 00:15:25;;;;;;;3.30;2.65;;;15.30;99.90;;;;;;4973491;28;20047;-72
2021/07/02 00:17:51;;;;;;;4.05;2.88;;;15.20;99.90;;;;;;4966983;28;20074;-72
2021/07/02 00:20:18;;;;;;;2.50;2.20;;;15.20;99.90;;;;;;4954695;28;20095;-73
2021/07/02 00:22:44;;;;;;;5.22;2.83;;;15.20;99.90;;;;;;4967718;28;20109;-73
2021/07/02 00:25:12;;;;;;;3.85;2.72;;;15.20;99.90;;;;;;4973927;28;20046;-73
2021/07/02 00:27:40;;;;;;;3.20;2.35;;;15.30;99.90;;;;;;4968615;28;20471;-71
2021/07/02 00:30:07;;;;;;;5.28;3.42;;;15.20;99.90;;;;;;4954649;28;20039;-72
2021/07/02 00:32:34;;;;;;;5.43;3.03;;;15.20;99.90;;;;;;4964505;28;20411;-71
2021/07/02 00:35:01;;;;;;;7.43;3.90;;;15.20;99.90;;;;;;4969818;28;20105;-72
2021/07/02 00:37:27;;;;;;;5.03;3.38;;;15.20;99.90;;;;;;4954299;29;20047;-71
2021/07/02 00:39:54;;;;;;;9.73;4.35;;;15.20;99.90;;;;;;4954509;29;20067;-72
2021/07/02 00:42:20;;;;;;;7.47;4.25;;;15.20;99.90;;;;;;4963271;28;20098;-71
2021/07/02 00:44:49;;;;;;;8.27;4.40;;;15.20;99.90;;;;;;4974010;28;20651;-71
2021/07/02 00:47:17;;;;;;;10.13;5.65;;;15.20;99.90;;;;;;4956278;28;20051;-71
2021/07/02 00:49:44;;;;;;;8.70;4.60;;;15.20;99.90;;;;;;4973631;28;20042;-72
2021/07/02 00:52:12;;;;;;;13.23;5.45;;;15.30;99.90;;;;;;4973382;28;20047;-72
2021/07/02 00:54:40;;;;;;;27.80;5.80;;;15.20;99.90;;;;;;4956809;28;20106;-72
2021/07/02 00:57:09;;;;;;;12.15;5.80;;;15.10;99.90;;;;;;4962769;28;20043;-72
2021/07/02 00:59:36;;;;;;;8.27;5.53;;;15.10;99.90;;;;;;4962510;28;20142;-72
2021/07/02 01:02:04;;;;;;;12.63;8.23;;;15.20;99.90;;;;;;4972191;28;20039;-71
2021/07/02 01:04:31;;;;;;;14.75;7.45;;;15.20;99.90;;;;;;4973611;28;20416;-71
2021/07/02 01:06:58;;;;;;;11.30;6.50;;;15.20;99.90;;;;;;4972688;28;20113;-73
2021/07/02 01:09:25;;;;;;;16.75;7.43;;;15.10;99.90;;;;;;4973182;28;20122;-73
2021/07/02 01:11:52;;;;;;;15.65;8.15;;;15.10;99.90;;;;;;4969632;28;20078;-72
2021/07/02 01:14:19;;;;;;;18.33;8.13;;;15.20;99.90;;;;;;4973613;28;20042;-72
2021/07/02 01:16:46;;;;;;;15.90;7.50;;;15.10;99.90;;;;;;4968692;28;20098;-72
2021/07/02 01:19:15;;;;;;;21.13;7.00;;;15.10;99.90;;;;;;4954326;29;20102;-73
2021/07/02 01:21:44;;;;;;;19.33;7.80;;;15.10;99.90;;;;;;4962661;28;20094;-72
2021/07/02 01:24:11;;;;;;;29.42;8.82;;;15.10;99.90;;;;;;4954403;29;20052;-72
2021/07/02 01:26:37;;;;;;;25.13;10.27;;;15.10;99.90;;;;;;4955402;28;20043;-72
2021/07/02 01:29:05;;;;;;;27.42;9.82;;;15.10;99.90;;;;;;4954220;28;20081;-72
2021/07/02 01:31:32;;;;;;;25.70;8.88;;;15.10;99.90;;;;;;4957807;28;20055;-72
2021/07/02 01:33:58;;;;;;;25.65;9.10;;;15.10;99.90;;;;;;4973867;28;20042;-72
2021/07/02 01:36:26;;;;;;;26.90;8.90;;;15.10;99.90;;;;;;4960487;28;20070;-72
2021/07/02 01:38:54;;;;;;;35.42;10.18;;;15.10;99.90;;;;;;4953925;28;20051;-72
2021/07/02 01:41:21;;;;;;;31.60;10.77;;;15.10;99.90;;;;;;4962719;28;20121;-72
2021/07/02 01:43:48;;;;;;;26.35;10.50;;;15.20;99.90;;;;;;4993102;28;20093;-72
2021/07/02 01:46:15;;;;;;;39.38;9.68;;;15.20;99.90;;;;;;4958784;28;20051;-72
2021/07/02 01:48:42;;;;;;;28.15;10.20;;;15.10;99.90;;;;;;4954089;29;20043;-72
2021/07/02 01:51:09;;;;;;;30.42;10.35;;;15.10;99.90;;;;;;4965709;28;20046;-72
2021/07/02 01:53:36;;;;;;;38.95;11.73;;;15.20;99.90;;;;;;4953827;28;20051;-72
2021/07/02 01:56:06;;;;;;;36.50;9.40;;;15.20;99.90;;;;;;4964691;28;20050;-73
2021/07/02 01:58:32;;;;;;;29.73;9.90;;;15.20;99.90;;;;;;4956555;28;20043;-72
2021/07/02 02:00:59;;;;;;;37.75;10.50;;;15.20;99.90;;;;;;4954547;28;20051;-72
2021/07/02 02:03:25;;;;;;;36.67;11.07;;;15.20;99.90;;;;;;4953693;28;20487;-72
2021/07/02 02:05:52;;;;;;;35.33;10.93;;;15.20;99.90;;;;;;4956498;28;20051;-72
2021/07/02 02:08:19;;;;;;;31.90;9.30;;;15.20;99.90;;;;;;4957308;28;20043;-72
2021/07/02 02:10:45;;;;;;;29.60;9.82;;;15.20;99.90;;;;;;4964116;28;20098;-72
2021/07/02 02:13:13;;;;;;;38.75;12.02;;;15.20;99.90;;;;;;4957583;28;20575;-72
2021/07/02 02:15:40;;;;;;;29.38;11.57;;;15.20;99.90;;;;;;4957731;28;20484;-72
2021/07/02 02:18:06;;;;;;;26.90;10.98;;;15.30;99.90;;;;;;4956928;28;20122;-72
2021/07/02 02:20:33;;;;;;;30.20;10.63;;;15.30;99.90;;;;;;4956576;28;20484;-72
2021/07/02 02:22:59;;;;;;;30.73;10.02;;;15.30;99.90;;;;;;4970835;28;20194;-72
2021/07/02 02:25:26;;;;;;;26.75;10.90;;;15.30;99.90;;;;;;4975871;28;20124;-71
2021/07/02 02:27:53;;;;;;;30.52;11.15;;;15.30;99.90;;;;;;4975424;28;20107;-72
2021/07/02 02:30:21;;;;;;;38.03;10.93;;;15.30;99.90;;;;;;4974600;28;20050;-72
2021/07/02 02:32:48;;;;;;;27.50;10.73;;;15.30;99.90;;;;;;4966715;28;20051;-72
2021/07/02 02:35:15;;;;;;;23.70;11.10;;;15.30;99.90;;;;;;4959935;28;20047;-72
2021/07/02 02:37:41;;;;;;;43.53;12.25;;;15.40;99.90;;;;;;4960976;28;20105;-73
2021/07/02 02:40:09;;;;;;;38.47;11.27;;;15.40;99.90;;;;;;4974075;28;20105;-73
2021/07/02 02:42:36;;;;;;;36.67;11.23;;;15.40;99.90;;;;;;4975684;28;20047;-72
2021/07/02 02:45:03;;;;;;;28.55;11.80;;;15.50;99.90;;;;;;4972139;28;20043;-72
2021/07/02 02:47:32;;;;;;;26.95;9.90;;;15.40;99.90;;;;;;4956731;28;20047;-72
2021/07/02 02:49:58;;;;;;;28.02;10.50;;;15.40;99.90;;;;;;4956417;29;20102;-72
2021/07/02 02:52:25;;;;;;;30.20;12.23;;;15.40;99.90;;;;;;4956066;28;20074;-72
2021/07/02 02:54:51;;;;;;;25.98;10.57;;;15.40;99.90;;;;;;4956253;28;20483;-71
2021/07/02 02:57:18;;;;;;;21.60;9.60;;;15.50;99.90;;;;;;4960760;28;20437;-71
2021/07/02 02:59:45;;;;;;;27.50;12.43;;;15.50;99.90;;;;;;4975462;28;20415;-72
2021/07/02 03:02:11;;;;;;;29.88;11.95;;;15.50;99.90;;;;;;4961888;28;20551;-72
2021/07/02 03:04:39;;;;;;;33.33;12.50;;;15.50;99.90;;;;;;4956243;29;20047;-72
2021/07/02 03:07:07;;;;;;;26.25;12.02;;;15.50;99.90;;;;;;4956270;28;20095;-72
2021/07/02 03:09:34;;;;;;;30.95;12.18;;;15.50;99.90;;;;;;4966381;28;20047;-73
2021/07/02 03:12:00;;;;;;;32.42;11.23;;;15.50;99.90;;;;;;4970102;28;20458;-72
2021/07/02 03:14:27;;;;;;;27.90;12.40;;;15.50;99.90;;;;;;4975814;28;20415;-73
2021/07/02 03:16:54;;;;;;;35.85;13.25;;;15.60;99.90;;;;;;4973494;28;20089;-72
2021/07/02 03:19:20;;;;;;;36.10;11.00;;;15.60;99.90;;;;;;4975162;28;20047;-73
2021/07/02 03:21:49;;;;;;;29.60;11.35;;;15.60;99.90;;;;;;4974978;28;20496;-72
2021/07/02 03:24:16;;;;;;;27.38;10.70;;;15.60;99.90;;;;;;4975130;28;20051;-72
2021/07/02 03:26:42;;;;;;;35.45;12.15;;;15.60;99.90;;;;;;4974424;28;20459;-72
2021/07/02 03:29:09;;;;;;;29.77;13.73;;;15.60;99.90;;;;;;4963234;28;20102;-73
2021/07/02 03:31:36;;;;;;;30.80;11.57;;;15.70;99.90;;;;;;4972007;28;20503;-72
2021/07/02 03:34:03;;;;;;;33.63;12.77;;;15.70;99.90;;;;;;4975235;28;20042;-71
2021/07/02 03:36:29;;;;;;;26.33;10.65;;;15.80;99.90;;;;;;4960416;28;20078;-72
2021/07/02 03:38:57;;;;;;;35.17;13.48;;;15.80;99.90;;;;;;4956389;29;20099;-73
2021/07/02 03:41:24;;;;;;;29.23;12.93;;;15.80;99.90;;;;;;4957380;28;20043;-73
2021/07/02 03:43:50;;;;;;;30.48;12.05;;;15.90;99.90;;;;;;4955510;29;20574;-77
2021/07/02 03:46:17;;;;;;;38.13;13.68;;;15.80;99.90;;;;;;4969372;28;20788;-74
2021/07/02 03:48:43;;;;;;;30.40;11.48;;;15.80;99.90;;;;;;4972749;28;20701;-73
2021/07/02 03:51:10;;;;;;;34.88;13.10;;;15.90;99.90;;;;;;4957185;28;20047;-78
2021/07/02 03:53:37;;;;;;;33.95;13.60;;;15.90;99.90;;;;;;4955126;28;20503;-74
2021/07/02 03:56:06;;;;;;;36.40;14.90;;;15.90;99.90;;;;;;4954849;28;20524;-76
2021/07/02 03:58:33;;;;;;;34.75;12.85;;;16.00;99.90;;;;;;4954606;28;20532;-74
2021/07/02 04:01:03;;;;;;;36.10;13.70;;;16.00;99.90;;;;;;4971602;28;20446;-73
2021/07/02 04:03:31;;;;;;;30.75;12.73;;;16.10;99.90;;;;;;4973444;28;20062;-74
2021/07/02 04:05:58;;;;;;;29.23;12.32;;;16.10;99.90;;;;;;4973955;28;20097;-75
2021/07/02 04:08:24;;;;;;;35.80;14.80;;;16.10;99.90;;;;;;4973924;28;20141;-73
2021/07/02 04:10:51;;;;;;;32.85;14.05;;;16.20;99.90;;;;;;4973705;28;20411;-74
2021/07/02 04:13:19;;;;;;;34.33;14.48;;;16.30;99.90;;;;;;4974046;28;20043;-72
2021/07/02 04:15:45;;;;;;;38.45;14.00;;;16.30;99.90;;;;;;4973648;28;20562;-72
2021/07/02 04:18:12;;;;;;;27.55;13.63;;;16.40;99.90;;;;;;4974255;28;20543;-74
2021/07/02 04:20:38;;;;;;;30.33;12.98;;;16.50;99.90;;;;;;4972962;28;20519;-70
2021/07/02 04:23:06;;;;;;;31.00;14.20;;;16.50;99.90;;;;;;4973218;28;20464;-71
2021/07/02 04:25:33;;;;;;;33.40;16.45;;;16.60;99.90;;;;;;4964938;28;20102;-70
2021/07/02 04:28:00;;;;;;;31.17;13.90;;;16.70;99.90;;;;;;4962379;28;20483;-72
2021/07/02 04:30:28;;;;;;;30.77;12.45;;;16.90;99.90;;;;;;4955311;28;20044;-71
2021/07/02 04:32:54;;;;;;;24.35;12.95;;;17.00;99.90;;;;;;4954649;28;20043;-68
2021/07/02 04:35:21;;;;;;;24.40;12.25;;;17.10;99.90;;;;;;4957675;28;20043;-68
2021/07/02 04:37:47;;;;;;;22.15;11.80;;;17.30;99.90;;;;;;4961378;28;20043;-69
2021/07/02 04:40:15;;;;;;;24.25;12.85;;;17.40;99.90;;;;;;4958802;28;20105;-69
2021/07/02 04:42:41;;;;;;;19.85;11.55;;;17.50;99.90;;;;;;4954766;28;20107;-68
2021/07/02 04:45:09;;;;;;;20.63;12.05;;;17.60;99.90;;;;;;4954303;28;20106;-70
2021/07/02 04:47:37;;;;;;;18.75;11.70;;;17.60;99.90;;;;;;4954199;28;20047;-70
2021/07/02 04:50:06;;;;;;;19.00;11.88;;;17.70;99.90;;;;;;4957658;28;20094;-70
2021/07/02 04:52:32;;;;;;;18.85;11.65;;;17.80;99.90;;;;;;4972709;28;20050;-70
2021/07/02 04:54:59;;;;;;;25.30;13.88;;;17.80;99.90;;;;;;4973593;28;20081;-70
2021/07/02 04:57:25;;;;;;;17.15;12.77;;;17.90;99.90;;;;;;4960554;28;20047;-70
2021/07/02 04:59:52;;;;;;;18.83;12.40;;;17.90;99.90;;;;;;4954243;28;20102;-70
2021/07/02 05:02:19;;;;;;;22.65;13.38;;;18.00;99.90;;;;;;4954300;29;20379;-69
2021/07/02 05:04:46;;;;;;;22.17;13.18;;;18.00;99.90;;;;;;4953983;29;20047;-69
2021/07/02 05:07:14;;;;;;;21.40;12.63;;;18.00;99.90;;;;;;4953633;29;20496;-69
2021/07/02 05:09:41;;;;;;;20.42;13.40;;;18.00;99.90;;;;;;4956518;28;20605;-70
2021/07/02 05:12:09;;;;;;;24.38;11.10;;;18.00;99.90;;;;;;4973902;28;20047;-69
2021/07/02 05:14:36;;;;;;;12.60;8.35;;;18.00;99.90;;;;;;4973124;28;20137;-69
2021/07/02 05:17:04;;;;;;;14.15;10.73;;;18.00;99.90;;;;;;4973573;28;20078;-71
2021/07/02 05:19:31;;;;;;;17.52;11.63;;;18.00;99.90;;;;;;4972186;28;20506;-68
2021/07/02 05:21:59;;;;;;;12.25;8.73;;;18.10;99.90;;;;;;4953796;29;20141;-67
2021/07/02 05:24:26;;;;;;;17.15;13.07;;;18.10;99.90;;;;;;4954144;28;20137;-68
2021/07/02 05:26:52;;;;;;;12.80;9.68;;;18.20;99.90;;;;;;4954132;28;20085;-69
2021/07/02 05:29:19;;;;;;;15.75;8.68;;;18.30;99.90;;;;;;4954370;28;20044;-69
2021/07/02 05:31:45;;;;;;;14.07;10.05;;;18.30;99.90;;;;;;4971748;28;20055;-69
2021/07/02 05:34:12;;;;;;;17.92;12.30;;;18.30;99.90;;;;;;4973214;28;20106;-70
2021/07/02 05:36:38;;;;;;;19.15;12.23;;;18.40;99.90;;;;;;4973288;28;20061;-72
2021/07/02 05:39:06;;;;;;;11.35;9.98;;;18.40;99.90;;;;;;4973870;28;20046;-71
2021/07/02 05:41:33;;;;;;;11.20;8.48;;;18.30;99.90;;;;;;4965515;28;20075;-71
2021/07/02 05:43:59;;;;;;;27.58;16.42;;;18.30;99.90;;;;;;4972492;28;20054;-71
2021/07/02 05:46:26;;;;;;;21.42;16.08;;;18.30;99.90;;;;;;4960128;28;20071;-70
2021/07/02 05:48:52;;;;;;;12.65;9.57;;;18.40;99.90;;;;;;4967957;28;20039;-70
2021/07/02 05:51:19;;;;;;;15.45;10.98;;;18.40;99.90;;;;;;4964479;28;20106;-71
2021/07/02 05:53:46;;;;;;;21.50;14.00;;;18.50;99.90;;;;;;4964987;28;20071;-71
2021/07/02 05:56:13;;;;;;;10.90;7.95;;;18.50;99.90;;;;;;4957705;28;20047;-69
2021/07/02 05:58:40;;;;;;;12.63;9.77;;;18.60;99.90;;;;;;4977293;28;20070;-69
2021/07/02 06:01:07;;;;;;;12.45;9.93;;;18.70;99.90;;;;;;4976762;28;20117;-69
2021/07/02 06:03:33;;;;;;;16.60;10.93;;;18.80;99.90;;;;;;4977329;28;20117;-69
2021/07/02 06:06:00;;;;;;;12.73;9.57;;;19.00;99.90;;;;;;4962910;28;20110;-69
2021/07/02 06:08:26;;;;;;;14.98;9.98;;;19.00;99.90;;;;;;4957642;28;20047;-70
2021/07/02 06:10:53;;;;;;;10.85;7.38;;;19.10;99.90;;;;;;4965137;28;20074;-69
2021/07/02 06:13:21;;;;;;;11.75;8.25;;;19.20;99.90;;;;;;4974216;28;20043;-70
2021/07/02 06:15:47;;;;;;;14.93;9.40;;;19.40;99.90;;;;;;4956603;29;20092;-70
2021/07/02 06:18:14;;;;;;;10.85;8.70;;;19.60;99.90;;;;;;4956788;28;20051;-70
2021/07/02 06:20:40;;;;;;;13.30;7.63;;;19.60;99.90;;;;;;4965831;28;20042;-70
2021/07/02 06:23:07;;;;;;;9.80;7.97;;;19.50;99.90;;;;;;4974248;28;20082;-69
2021/07/02 06:25:34;;;;;;;10.00;8.15;;;19.30;99.90;;;;;;4962800;28;20047;-70
2021/07/02 06:28:00;;;;;;;15.25;11.07;;;19.30;99.90;;;;;;4975858;28;20082;-70
2021/07/02 06:30:28;;;;;;;13.80;8.80;;;19.40;99.90;;;;;;4975914;28;20053;-70
2021/07/02 06:32:55;;;;;;;16.17;11.40;;;19.50;99.90;;;;;;4973827;28;20039;-70
2021/07/02 06:35:21;;;;;;;20.25;12.98;;;19.70;99.90;;;;;;4975148;28;20094;-70
2021/07/02 06:37:51;;;;;;;17.15;11.90;;;20.00;99.90;;;;;;4974041;28;20082;-70
2021/07/02 06:40:18;;;;;;;9.20;7.80;;;20.10;99.90;;;;;;4974112;28;20038;-71
2021/07/02 06:42:46;;;;;;;12.82;8.35;;;20.40;99.90;;;;;;4973994;28;20051;-72
2021/07/02 06:45:13;;;;;;;11.38;7.53;;;20.80;99.90;;;;;;4975654;28;20047;-73
2021/07/02 06:47:56;;;;;;;15.82;8.20;;;21.10;99.90;;;;;;4975378;28;20050;-75
2021/07/02 06:50:23;;;;;;;10.80;7.38;;;21.30;99.90;;;;;;4975266;28;20055;-71
2021/07/02 06:52:50;;;;;;;9.90;6.03;;;21.70;99.90;;;;;;4974169;28;20495;-69
2021/07/02 06:55:16;;;;;;;8.95;7.40;;;22.10;99.90;;;;;;4970032;28;20106;-68
2021/07/02 06:57:43;;;;;;;9.80;5.90;;;22.40;99.90;;;;;;4958037;28;20083;-67
2021/07/02 07:00:10;;;;;;;6.88;5.03;;;22.30;99.90;;;;;;4956014;28;20567;-69
2021/07/02 07:02:37;;;;;;;9.73;7.50;;;22.00;99.90;;;;;;4974575;28;20042;-70
2021/07/02 07:05:06;;;;;;;6.60;5.45;;;21.90;99.90;;;;;;4974224;28;20121;-70
2021/07/02 07:07:32;;;;;;;6.70;4.82;;;22.00;99.90;;;;;;4959036;28;20047;-70
2021/07/02 07:09:59;;;;;;;9.20;7.78;;;22.20;99.90;;;;;;4956372;28;20051;-69
2021/07/02 07:12:25;;;;;;;4.75;4.10;;;22.70;99.90;;;;;;4955663;28;20199;-71
2021/07/02 07:14:52;;;;;;;7.20;5.25;;;22.90;99.90;;;;;;4955035;28;20051;-69
2021/07/02 07:17:19;;;;;;;7.47;5.55;;;23.10;99.90;;;;;;4956552;28;20573;-70
2021/07/02 07:19:45;;;;;;;6.70;4.75;;;23.70;99.90;;;;;;4963091;28;20047;-68
2021/07/02 07:22:13;;;;;;;6.53;4.80;;;23.90;99.90;;;;;;4974001;28;20522;-70
2021/07/02 07:24:40;;;;;;;6.80;5.20;;;24.40;99.90;;;;;;4974098;28;20047;-67
2021/07/02 07:27:07;;;;;;;4.93;4.35;;;24.80;99.90;;;;;;4969926;28;20043;-68
2021/07/02 07:29:33;;;;;;;5.03;4.25;;;25.00;99.90;;;;;;4974445;28;20054;-68
2021/07/02 07:32:01;;;;;;;8.13;5.35;;;24.70;99.90;;;;;;4960653;28;20083;-69
2021/07/02 07:34:33;;;;;;;6.75;5.40;;;24.30;99.90;;;;;;4954664;29;20102;-71
2021/07/02 07:37:02;;;;;;;9.55;6.55;;;23.80;99.90;;;;;;4954161;29;20079;-71
2021/07/02 07:39:30;;;;;;;5.38;4.32;;;23.70;99.90;;;;;;4955348;28;20047;-71
2021/07/02 07:41:57;;;;;;;8.77;5.50;;;23.70;99.90;;;;;;4954559;28;20055;-70
2021/07/02 07:44:24;;;;;;;4.57;4.18;;;23.80;99.90;;;;;;4954455;28;20416;-71
2021/07/02 07:46:50;;;;;;;6.55;4.38;;;24.40;99.90;;;;;;4955387;28;20039;-72
2021/07/02 07:49:17;;;;;;;10.45;4.88;;;25.10;99.90;;;;;;4954400;29;20047;-70
2021/07/02 07:51:47;;;;;;;6.55;5.50;;;25.40;99.90;;;;;;4919765;28;1022962;-70
2021/07/02 07:54:14;;;;;;;8.80;5.33;;;25.30;99.90;;;;;;4962936;28;20047;-71
2021/07/02 07:56:50;;;;;;;4.28;3.85;;;25.30;99.90;;;;;;4974647;28;20043;-69
2021/07/02 07:59:17;;;;;;;8.85;4.82;;;25.20;99.90;;;;;;4973818;28;20051;-70
2021/07/02 08:01:44;;;;;;;5.60;4.07;;;24.70;99.90;;;;;;4955033;28;20047;-70
2021/07/02 08:04:13;;;;;;;19.83;12.27;;;24.10;99.90;;;;;;4955013;28;20051;-70
2021/07/02 08:06:39;;;;;;;7.20;5.80;;;24.20;99.90;;;;;;4954761;28;20047;-71
2021/07/02 08:09:06;;;;;;;7.35;5.13;;;25.00;99.90;;;;;;4956908;28;20043;-70
2021/07/02 08:11:33;;;;;;;5.60;4.45;;;25.90;99.90;;;;;;4967576;28;20410;-70
2021/07/02 08:14:01;;;;;;;6.35;3.88;;;27.00;99.80;;;;;;4974541;28;20055;-74
2021/07/02 08:16:28;;;;;;;6.15;3.92;;;27.90;95.20;;;;;;4954748;28;20043;-71
2021/07/02 08:18:54;;;;;;;2.90;2.70;;;28.30;93.60;;;;;;4958098;28;20105;-72
2021/07/02 08:21:21;;;;;;;4.75;3.30;;;27.70;90.60;;;;;;4974539;28;20116;-68
2021/07/02 08:23:48;;;;;;;4.47;3.03;;;26.60;92.40;;;;;;4974169;28;20117;-70
2021/07/02 08:26:15;;;;;;;4.35;3.50;;;26.30;94.40;;;;;;4958720;28;20047;-71
2021/07/02 08:31:27;;;;;;;3.42;3.13;;;27.20;93.70;;;;;;4959757;28;20061;-71
2021/07/02 08:33:54;;;;;;;5.28;4.55;;;27.60;91.90;;;;;;4966576;28;20047;-67
2021/07/02 08:36:21;;;;;;;5.28;3.03;;;28.20;89.20;;;;;;4965992;28;20551;-70
2021/07/02 08:38:47;;;;;;;2.58;2.38;;;28.70;85.70;;;;;;4993134;28;20049;-70
2021/07/02 08:41:15;;;;;;;4.43;2.80;;;28.90;85.80;;;;;;4986323;28;20047;-70
2021/07/02 08:43:42;;;;;;;4.25;3.10;;;28.10;84.50;;;;;;4973793;28;20117;-70
2021/07/02 08:46:12;;;;;;;4.25;3.08;;;28.20;85.50;;;;;;4973478;28;20153;-72
2021/07/02 08:48:41;;;;;;;3.25;2.45;;;28.20;85.70;;;;;;4973693;28;20043;-71
2021/07/02 08:51:08;;;;;;;3.85;3.42;;;27.70;85.70;;;;;;4973115;28;20043;-71
2021/07/02 08:53:35;;;;;;;4.75;3.70;;;27.20;88.70;;;;;;4973163;28;20101;-70
2021/07/02 08:56:03;;;;;;;3.45;3.15;;;27.00;90.20;;;;;;4971638;28;20558;-71
2021/07/02 08:58:31;;;;;;;3.78;3.35;;;27.70;88.80;;;;;;4959020;28;20055;-71
2021/07/02 09:00:58;;;;;;;4.35;3.83;;;28.30;85.70;;;;;;4965406;28;20091;-68
2021/07/02 09:03:27;;;;;;;3.40;3.10;;;29.40;81.10;;;;;;4958140;28;20558;-70
2021/07/02 09:05:55;;;;;;;4.75;4.35;;;29.60;79.80;;;;;;4973901;28;20051;-69
2021/07/02 09:08:23;;;;;;;7.32;5.65;;;30.40;78.10;;;;;;4956420;28;20074;-70
2021/07/02 09:10:50;;;;;;;9.77;5.70;;;31.10;73.10;;;;;;4963614;28;20074;-69
2021/07/02 09:13:17;;;;;;;5.75;4.68;;;30.70;72.20;;;;;;4973297;28;20081;-70
2021/07/02 09:15:46;;;;;;;5.35;4.05;;;30.20;74.20;;;;;;4968129;28;20082;-69
2021/07/02 09:18:13;;;;;;;5.53;4.32;;;29.90;74.10;;;;;;4962412;28;20050;-69
2021/07/02 09:20:41;;;;;;;6.88;4.65;;;28.70;75.50;;;;;;4970340;28;20051;-69
2021/07/02 09:23:10;;;;;;;4.18;3.65;;;28.50;77.10;;;;;;4961202;28;20054;-68
2021/07/02 09:25:39;;;;;;;9.88;5.95;;;28.40;77.60;;;;;;4957662;28;20047;-71
2021/07/02 09:28:08;;;;;;;4.63;4.05;;;27.80;79.30;;;;;;4957813;28;20051;-70
2021/07/02 09:30:36;;;;;;;5.20;4.40;;;26.60;83.60;;;;;;4957838;28;20480;-71
2021/07/02 09:33:04;;;;;;;4.35;3.47;;;26.20;83.80;;;;;;4959413;28;20110;-72
2021/07/02 09:35:35;;;;;;;3.40;3.10;;;27.10;82.80;;;;;;4960129;28;20044;-72
2021/07/02 09:38:03;;;;;;;4.10;3.47;;;28.00;80.70;;;;;;4994262;28;20054;-72
2021/07/02 09:40:32;;;;;;;3.42;3.13;;;29.10;77.80;;;;;;4990647;28;20505;-73
2021/07/02 09:43:02;;;;;;;4.65;3.97;;;29.10;74.50;;;;;;4978296;28;20054;-72
2021/07/02 09:45:29;;;;;;;4.95;4.03;;;28.50;75.90;;;;;;4977319;28;20466;-73
2021/07/02 09:47:56;;;;;;;5.85;3.00;;;28.50;74.70;;;;;;4976072;28;20047;-74
2021/07/02 09:50:27;;;;;;;4.03;3.58;;;29.40;70.90;;;;;;4976693;28;20069;-71
2021/07/02 09:52:57;;;;;;;3.97;3.58;;;30.20;70.50;;;;;;4979475;28;20051;-71
2021/07/02 09:55:25;;;;;;;4.13;3.43;;;30.70;69.00;;;;;;4977154;28;20145;-71
2021/07/02 09:58:04;;;;;;;4.15;3.53;;;31.20;68.20;;;;;;4976777;28;20054;-68
2021/07/02 10:00:33;;;;;;;5.75;2.90;;;31.70;63.80;;;;;;4973571;28;20050;-70
2021/07/02 10:03:02;;;;;;;5.90;3.67;;;31.80;62.80;;;;;;4976744;28;20054;-72
2021/07/02 10:05:29;;;;;;;3.40;2.90;;;31.80;61.60;;;;;;4976502;28;20043;-70
2021/07/02 10:07:57;;;;;;;3.47;3.17;;;31.80;61.50;;;;;;4965531;28;20043;-71
2021/07/02 10:10:25;;;;;;;5.85;3.53;;;31.70;62.70;;;;;;4976683;28;20046;-71
2021/07/02 10:12:52;;;;;;;5.55;4.00;;;31.80;61.80;;;;;;4966918;28;20047;-74
2021/07/02 10:15:20;;;;;;;6.80;4.70;;;31.70;59.40;;;;;;4958350;28;20047;-76
2021/07/02 10:17:47;;;;;;;6.53;5.30;;;32.30;58.80;;;;;;4971753;28;20050;-74
2021/07/02 10:20:15;;;;;;;6.13;5.53;;;31.80;57.30;;;;;;4968557;28;20048;-71
2021/07/02 10:22:42;;;;;;;4.30;3.88;;;31.50;60.40;;;;;;4957453;28;20100;-71
2021/07/02 10:25:11;;;;;;;4.88;3.45;;;31.00;58.40;;;;;;4956661;28;20079;-72
2021/07/02 10:27:39;;;;;;;5.05;3.35;;;31.50;59.80;;;;;;4956564;28;20051;-73
2021/07/02 10:30:09;;;;;;;3.67;3.30;;;31.90;57.80;;;;;;4956873;29;20043;-71
2021/07/02 10:32:38;;;;;;;4.15;3.25;;;31.90;56.90;;;;;;4974762;28;20157;-71
2021/07/02 10:35:07;;;;;;;3.28;2.85;;;32.00;56.90;;;;;;4976096;28;20467;-72
2021/07/02 10:37:33;;;;;;;5.13;3.40;;;32.80;56.40;;;;;;4967355;28;20078;-72
2021/07/02 10:40:00;;;;;;;5.05;4.10;;;32.80;53.80;;;;;;4956605;28;20129;-72
2021/07/02 10:42:28;;;;;;;3.50;3.13;;;32.60;57.40;;;;;;4957236;28;20051;-73
2021/07/02 10:45:09;;;;;;;5.55;4.78;;;32.90;56.40;;;;;;4963994;28;20051;-74
2021/07/02 10:47:52;;;;;;;;;;;33.20;55.70;;;;;;4976060;28;20047;-72
2021/07/02 10:50:39;;;;;;;6.53;4.95;;;33.70;54.60;;;;;;4975339;28;19969;-72
2021/07/02 10:53:26;;;;;;;3.80;3.28;;;33.20;54.50;;;;;;4975210;28;20519;-72
2021/07/02 10:55:53;;;;;;;5.63;3.58;;;31.70;55.90;;;;;;4974760;28;20097;-72
2021/07/02 10:58:22;;;;;;;5.95;3.00;;;31.10;55.20;;;;;;4977162;28;20051;-72
2021/07/02 11:01:11;;;;;;;10.23;7.97;;;31.00;59.50;;;;;;4977706;28;20062;-71
2021/07/02 11:03:39;;;;;;;6.28;5.07;;;31.50;61.30;;;;;;4975449;28;20063;-72
2021/07/02 11:06:38;;;;;;;6.28;4.60;;;31.00;57.70;;;;;;4966150;28;20039;-72
2021/07/02 11:09:05;;;;;;;6.57;4.13;;;30.20;61.40;;;;;;4955799;29;20057;-71
2021/07/02 11:12:12;;;;;;;6.15;4.85;;;30.20;63.20;;;;;;4971157;28;20074;-71
2021/07/02 11:15:10;;;;;;;3.72;3.15;;;31.00;61.20;;;;;;4956265;29;20500;-73
2021/07/02 11:17:38;;;;;;;6.05;4.47;;;31.40;56.90;;;;;;4966662;28;20047;-72
2021/07/02 11:20:31;;;;;;;6.88;5.22;;;30.50;58.40;;;;;;4974998;28;20078;-72
2021/07/02 11:23:18;;;;;;;5.07;4.57;;;30.60;59.30;;;;;;4974791;28;20067;-73
2021/07/02 11:25:50;;;;;;;4.35;3.95;;;30.70;57.70;;;;;;4975028;28;20486;-73
2021/07/02 11:28:32;;;;;;;6.65;4.50;;;30.20;58.80;;;;;;4975462;28;20062;-73
2021/07/02 11:31:03;;;;;;;6.47;4.25;;;29.70;60.00;;;;;;4975261;28;20043;-73
2021/07/02 11:33:40;;;;;;;5.78;3.88;;;29.80;61.60;;;;;;4975167;28;20078;-73
2021/07/02 11:36:11;;;;;;;4.32;3.75;;;30.30;62.70;;;;;;4975126;28;20447;-73
2021/07/02 11:38:48;;;;;;;;;;;30.60;60.10;;;;;;4966494;28;20055;-73
2021/07/02 11:41:29;;;;;;;8.38;6.20;;;30.60;57.70;;;;;;4959412;28;19922;-73
2021/07/02 11:43:58;;;;;;;5.20;4.70;;;31.00;58.90;;;;;;4955870;29;20054;-74
2021/07/02 11:46:25;;;;;;;4.65;4.25;;;29.60;59.60;;;;;;4965821;28;20047;-73
2021/07/02 11:48:53;;;;;;;5.25;4.75;;;29.20;61.10;;;;;;4974841;28;20639;-73
2021/07/02 11:51:23;;;;;;;5.65;3.95;;;28.60;63.30;;;;;;4973999;28;20046;-72
2021/07/02 11:53:52;;;;;;;6.60;3.90;;;28.20;65.00;;;;;;4969096;28;20097;-74
2021/07/02 11:56:21;;;;;;;4.35;3.95;;;28.80;65.70;;;;;;4990277;28;20050;-73
2021/07/02 11:58:49;;;;;;;5.05;3.92;;;29.90;63.50;;;;;;4994102;28;20077;-73
2021/07/02 12:01:17;;;;;;;3.80;3.42;;;30.60;61.20;;;;;;4994114;28;20046;-73
2021/07/02 12:03:45;;;;;;;3.05;2.70;;;31.60;58.20;;;;;;4972377;28;20051;-74
2021/07/02 12:06:17;;;;;;;3.40;3.05;;;31.50;57.40;;;;;;4974389;28;20113;-73
2021/07/02 12:08:49;;;;;;;4.25;3.25;;;30.90;57.70;;;;;;4974478;28;20051;-74
2021/07/02 12:11:16;;;;;;;3.20;2.80;;;30.90;56.50;;;;;;4974546;28;20051;-73
2021/07/02 12:13:50;;;;;;;3.47;3.17;;;31.20;56.50;;;;;;4974296;28;20415;-73
2021/07/02 12:16:17;;;;;;;4.93;3.70;;;31.40;56.30;;;;;;4955278;28;20167;-73
2021/07/02 12:18:44;;;;;;;4.75;4.35;;;31.00;54.10;;;;;;4954809;29;20057;-74
2021/07/02 12:21:13;;;;;;;6.82;4.10;;;30.30;58.20;;;;;;4955011;28;20043;-73
2021/07/02 12:23:41;;;;;;;4.65;3.80;;;29.70;58.80;;;;;;4955834;29;20043;-74
2021/07/02 12:26:14;;;;;;;3.58;3.05;;;29.10;60.50;;;;;;4955692;28;20055;-75
2021/07/02 12:29:04;;;;;;;3.88;3.55;;;29.70;58.50;;;;;;4954746;28;20048;-73
2021/07/02 12:31:32;;;;;;;3.03;2.80;;;29.80;58.00;;;;;;4954933;29;20051;-73
2021/07/02 12:34:00;;;;;;;4.28;3.17;;;30.90;56.70;;;;;;4954902;29;20362;-73
2021/07/02 12:36:29;;;;;;;5.50;4.18;;;30.60;57.70;;;;;;4966485;28;20054;-73
2021/07/02 12:39:05;;;;;;;3.72;3.42;;;30.70;59.30;;;;;;4974263;28;20480;-74
2021/07/02 12:41:38;;;;;;;5.82;5.05;;;31.00;57.40;;;;;;4966498;28;20039;-73
2021/07/02 12:44:06;;;;;;;4.88;3.90;;;31.50;56.50;;;;;;4954719;29;20055;-74
2021/07/02 12:46:45;;;;;;;4.45;3.53;;;31.80;54.10;;;;;;4954197;29;20590;-73